createdAt,value
2018-09-06T00:01:35.020Z,18.70
2018-09-06T00:04:04.126Z,18.70
2018-09-06T00:06:33.173Z,18.60
2018-09-06T00:09:03.576Z,18.60
2018-09-06T00:11:32.598Z,18.60
2018-09-06T00:14:04.153Z,18.60
2018-09-06T00:16:33.355Z,18.60
2018-09-06T00:19:03.091Z,18.60
2018-09-06T00:21:33.345Z,18.60
2018-09-06T00:24:03.566Z,18.50
2018-09-06T00:26:32.766Z,18.50
2018-09-06T00:29:03.880Z,18.50
2018-09-06T00:31:34.953Z,18.40
2018-09-06T00:34:06.448Z,18.40
2018-09-06T00:36:36.727Z,18.40
2018-09-06T00:39:06.991Z,18.40
2018-09-06T00:41:36.341Z,18.30
2018-09-06T00:44:07.364Z,18.30
2018-09-06T00:46:36.611Z,18.30
2018-09-06T00:49:05.810Z,18.30
2018-09-06T00:51:35.042Z,18.30
2018-09-06T00:54:05.232Z,18.20
2018-09-06T00:56:34.689Z,18.30
2018-09-06T00:59:04.337Z,18.20
2018-09-06T01:01:33.476Z,18.10
2018-09-06T01:04:02.944Z,18.10
2018-09-06T01:06:32.106Z,18.10
2018-09-06T01:09:02.269Z,18.10
2018-09-06T01:11:31.309Z,18.20
2018-09-06T01:14:00.606Z,18.20
2018-09-06T01:16:29.617Z,18.10
2018-09-06T01:18:59.959Z,18.00
2018-09-06T01:21:29.318Z,18.00
2018-09-06T01:23:59.585Z,17.90
2018-09-06T01:26:28.905Z,17.90
2018-09-06T01:28:58.104Z,17.90
2018-09-06T01:31:27.188Z,18.00
2018-09-06T01:33:56.833Z,17.90
2018-09-06T01:36:31.042Z,17.90
2018-09-06T01:39:00.962Z,17.90
2018-09-06T01:41:30.098Z,17.90
2018-09-06T01:43:59.342Z,17.80
2018-09-06T01:46:28.554Z,17.80
2018-09-06T01:48:57.776Z,17.70
2018-09-06T01:51:27.972Z,17.70
2018-09-06T01:53:58.032Z,17.70
2018-09-06T01:56:27.238Z,17.70
2018-09-06T01:58:57.206Z,17.70
2018-09-06T02:01:26.452Z,17.80
2018-09-06T02:03:56.053Z,17.70
2018-09-06T02:06:25.504Z,17.70
2018-09-06T02:08:54.617Z,17.70
2018-09-06T02:11:23.905Z,17.70
2018-09-06T02:13:53.211Z,17.70
2018-09-06T02:16:22.268Z,17.70
2018-09-06T02:18:51.383Z,17.60
2018-09-06T02:21:20.565Z,17.70
2018-09-06T02:23:49.651Z,17.70
2018-09-06T02:26:18.701Z,17.60
2018-09-06T02:28:47.814Z,17.60
2018-09-06T02:31:18.324Z,17.60
2018-09-06T02:33:47.450Z,17.50
2018-09-06T02:36:16.814Z,17.50
2018-09-06T02:38:45.913Z,17.50
2018-09-06T02:41:15.052Z,17.50
2018-09-06T02:43:44.231Z,17.50
2018-09-06T02:46:13.383Z,17.40
2018-09-06T02:48:43.507Z,17.40
2018-09-06T02:51:17.314Z,17.40
2018-09-06T02:53:46.495Z,17.40
2018-09-06T02:56:16.152Z,17.30
2018-09-06T02:58:45.340Z,17.30
2018-09-06T03:01:14.616Z,17.20
2018-09-06T03:03:43.623Z,17.20
2018-09-06T03:06:12.826Z,17.20
2018-09-06T03:08:41.857Z,17.10
2018-09-06T03:11:14.418Z,17.10
2018-09-06T03:13:43.622Z,17.10
2018-09-06T03:16:12.897Z,17.20
2018-09-06T03:18:41.998Z,17.10
2018-09-06T03:21:13.126Z,17.00
2018-09-06T03:23:42.352Z,17.00
2018-09-06T03:26:17.206Z,17.10
2018-09-06T03:28:48.024Z,17.00
2018-09-06T03:31:17.292Z,17.00
2018-09-06T03:33:47.090Z,16.90
2018-09-06T03:36:16.402Z,16.90
2018-09-06T03:38:45.961Z,16.90
2018-09-06T03:41:15.200Z,16.80
2018-09-06T03:43:44.321Z,16.80
2018-09-06T03:46:13.576Z,16.80
2018-09-06T03:48:42.671Z,16.70
2018-09-06T03:51:12.797Z,16.70
2018-09-06T03:53:41.935Z,16.70
2018-09-06T03:56:12.388Z,16.70
2018-09-06T03:58:41.505Z,16.70
2018-09-06T04:01:11.765Z,16.70
2018-09-06T04:03:40.850Z,16.70
2018-09-06T04:06:11.185Z,16.70
2018-09-06T04:08:40.488Z,16.70
2018-09-06T04:11:12.034Z,16.70
2018-09-06T04:13:41.228Z,16.80
2018-09-06T04:16:10.530Z,16.70
2018-09-06T04:18:39.787Z,16.70
2018-09-06T04:21:09.154Z,16.60
2018-09-06T04:23:38.423Z,16.70
2018-09-06T04:26:07.732Z,16.60
2018-09-06T04:28:36.770Z,16.60
2018-09-06T04:31:06.232Z,16.50
2018-09-06T04:33:35.465Z,16.60
2018-09-06T04:36:04.773Z,16.50
2018-09-06T04:38:35.879Z,16.50
2018-09-06T04:41:05.137Z,16.50
2018-09-06T04:43:34.283Z,16.50
2018-09-06T04:46:03.556Z,16.50
2018-09-06T04:48:32.973Z,16.50
2018-09-06T04:51:02.357Z,16.50
2018-09-06T04:53:33.604Z,16.50
2018-09-06T04:56:02.833Z,16.50
2018-09-06T04:58:32.156Z,16.50
2018-09-06T05:01:01.352Z,16.50
2018-09-06T05:03:30.607Z,16.50
2018-09-06T05:05:59.623Z,16.50
2018-09-06T05:08:28.652Z,16.50
2018-09-06T05:10:57.758Z,16.50
2018-09-06T05:13:26.989Z,16.50
2018-09-06T05:15:56.996Z,16.50
2018-09-06T05:18:26.303Z,16.50
2018-09-06T05:20:55.747Z,16.50
2018-09-06T05:23:24.786Z,16.60
2018-09-06T05:25:53.969Z,16.70
2018-09-06T05:28:23.093Z,16.80
2018-09-06T05:30:59.637Z,16.90
2018-09-06T05:33:30.792Z,16.90
2018-09-06T05:36:03.842Z,16.80
2018-09-06T05:38:33.904Z,16.80
2018-09-06T05:41:03.216Z,16.90
2018-09-06T05:43:32.337Z,17.00
2018-09-06T05:46:02.460Z,17.10
2018-09-06T05:48:32.570Z,17.10
2018-09-06T05:51:01.802Z,17.20
2018-09-06T05:53:30.948Z,17.30
2018-09-06T05:56:00.091Z,17.40
2018-09-06T05:58:30.281Z,17.50
2018-09-06T06:00:59.424Z,17.50
2018-09-06T06:03:29.554Z,17.60
2018-09-06T06:05:58.623Z,17.70
2018-09-06T06:08:40.875Z,17.80
2018-09-06T06:11:12.075Z,18.00
2018-09-06T06:13:41.266Z,18.20
2018-09-06T06:16:11.075Z,18.40
2018-09-06T06:18:40.281Z,18.50
2018-09-06T06:21:09.676Z,18.90
2018-09-06T06:23:38.932Z,19.50
2018-09-06T06:26:08.282Z,19.80
2018-09-06T06:28:37.227Z,20.00
2018-09-06T06:31:07.357Z,20.10
2018-09-06T06:33:36.606Z,20.30
2018-09-06T06:36:06.781Z,20.50
2018-09-06T06:38:35.956Z,20.90
2018-09-06T06:41:05.208Z,21.10
2018-09-06T06:43:35.371Z,21.60
2018-09-06T06:46:05.535Z,21.90
2018-09-06T06:48:35.789Z,21.90
2018-09-06T06:51:05.571Z,21.90
2018-09-06T06:53:36.707Z,21.80
2018-09-06T06:56:05.950Z,21.60
2018-09-06T06:58:35.066Z,21.60
2018-09-06T07:01:04.302Z,21.40
2018-09-06T07:03:33.387Z,21.30
2018-09-06T07:06:02.571Z,21.30
2018-09-06T07:08:31.604Z,21.60
2018-09-06T07:11:01.222Z,21.90
2018-09-06T07:13:31.758Z,22.00
2018-09-06T07:16:00.936Z,22.10
2018-09-06T07:18:31.257Z,22.20
2018-09-06T07:21:01.435Z,22.20
2018-09-06T07:23:30.582Z,22.20
2018-09-06T07:26:00.704Z,22.20
2018-09-06T07:28:29.794Z,22.30
2018-09-06T07:30:58.796Z,22.30
2018-09-06T07:33:27.987Z,22.20
2018-09-06T07:35:57.046Z,22.30
2018-09-06T07:38:26.266Z,22.30
2018-09-06T07:40:55.494Z,22.40
2018-09-06T07:43:24.504Z,22.60
2018-09-06T07:45:53.752Z,22.60
2018-09-06T07:48:22.759Z,22.70
2018-09-06T07:50:51.899Z,22.80
2018-09-06T07:53:21.107Z,22.90
2018-09-06T07:55:50.245Z,22.90
2018-09-06T07:58:19.536Z,22.70
2018-09-06T08:00:49.654Z,22.60
2018-09-06T08:03:18.849Z,22.40
2018-09-06T08:05:48.925Z,22.30
2018-09-06T08:08:19.077Z,22.40
2018-09-06T08:10:48.129Z,22.30
2018-09-06T08:13:17.356Z,22.40
2018-09-06T08:15:49.166Z,22.50
2018-09-06T08:18:18.546Z,22.60
2018-09-06T08:20:47.765Z,22.70
2018-09-06T08:23:17.065Z,23.10
2018-09-06T08:25:46.369Z,22.80
2018-09-06T08:28:15.563Z,22.90
2018-09-06T08:30:45.715Z,22.90
2018-09-06T08:33:15.773Z,23.00
2018-09-06T08:35:45.079Z,23.10
2018-09-06T08:38:15.423Z,23.20
2018-09-06T08:40:44.848Z,23.40
2018-09-06T08:43:14.010Z,23.70
2018-09-06T08:45:44.218Z,23.90
2018-09-06T08:48:13.570Z,24.10
2018-09-06T08:50:42.826Z,24.20
2018-09-06T08:53:12.575Z,24.20
2018-09-06T08:55:41.888Z,24.30
2018-09-06T08:58:11.231Z,24.60
2018-09-06T09:00:41.253Z,24.90
2018-09-06T09:03:11.212Z,25.30
2018-09-06T09:05:40.519Z,25.70
2018-09-06T09:08:09.715Z,26.00
2018-09-06T09:10:38.731Z,26.00
2018-09-06T09:13:09.139Z,26.30
2018-09-06T09:15:38.299Z,26.20
2018-09-06T09:18:07.656Z,26.20
2018-09-06T09:20:37.677Z,26.20
2018-09-06T09:23:06.968Z,26.20
2018-09-06T09:25:36.105Z,26.00
2018-09-06T09:28:05.389Z,25.80
2018-09-06T09:30:35.470Z,25.90
2018-09-06T09:33:06.154Z,26.00
2018-09-06T09:35:37.413Z,26.10
2018-09-06T09:38:06.661Z,25.90
2018-09-06T09:40:35.781Z,25.90
2018-09-06T09:43:05.209Z,25.80
2018-09-06T09:45:34.407Z,25.80
2018-09-06T09:48:04.089Z,25.80
2018-09-06T09:53:01.550Z,25.80
2018-09-06T09:55:30.675Z,25.80
2018-09-06T09:58:00.179Z,25.80
2018-09-06T10:00:33.655Z,25.90
2018-09-06T10:03:07.962Z,25.80
2018-09-06T10:05:42.250Z,25.70
2018-09-06T10:08:16.548Z,25.20
2018-09-06T10:10:46.119Z,25.10
2018-09-06T10:13:15.277Z,24.90
2018-09-06T10:15:44.515Z,25.10
2018-09-06T10:18:13.810Z,25.30
2018-09-06T10:20:43.136Z,25.10
2018-09-06T10:23:12.373Z,25.70
2018-09-06T10:25:41.379Z,25.90
2018-09-06T10:28:10.781Z,26.10
2018-09-06T10:30:40.043Z,26.30
2018-09-06T10:33:09.354Z,26.50
2018-09-06T10:35:38.583Z,26.60
2018-09-06T10:38:08.044Z,26.70
2018-09-06T10:40:37.184Z,26.90
2018-09-06T10:43:06.824Z,26.80
2018-09-06T10:45:35.883Z,27.30
2018-09-06T10:48:05.078Z,27.70
2018-09-06T10:50:34.262Z,27.70
2018-09-06T10:53:03.387Z,27.70
2018-09-06T10:55:33.673Z,27.60
2018-09-06T10:58:02.964Z,27.80
2018-09-06T11:00:32.095Z,27.70
2018-09-06T11:03:01.714Z,28.10
2018-09-06T11:05:32.789Z,28.40
2018-09-06T11:08:02.402Z,28.30
2018-09-06T11:10:32.606Z,28.20
2018-09-06T11:13:01.782Z,28.30
2018-09-06T11:15:34.779Z,28.40
2018-09-06T11:18:04.324Z,28.40
2018-09-06T11:20:33.473Z,27.90
2018-09-06T11:23:03.993Z,27.30
2018-09-06T11:25:34.506Z,27.10
2018-09-06T11:28:04.759Z,26.70
2018-09-06T11:30:35.367Z,26.40
2018-09-06T11:33:04.595Z,26.30
2018-09-06T11:35:34.129Z,26.20
2018-09-06T11:38:03.406Z,25.80
2018-09-06T11:40:32.701Z,25.90
2018-09-06T11:43:03.095Z,25.70
2018-09-06T11:45:33.911Z,25.70
2018-09-06T11:48:12.341Z,25.50
2018-09-06T11:50:41.801Z,25.50
2018-09-06T11:53:11.276Z,25.30
2018-09-06T11:55:41.502Z,25.30
2018-09-06T11:58:13.655Z,25.20
2018-09-06T12:00:45.110Z,25.30
2018-09-06T12:03:14.492Z,25.40
2018-09-06T12:05:45.053Z,25.50
2018-09-06T12:08:15.437Z,25.40
2018-09-06T12:10:46.581Z,25.30
2018-09-06T12:13:16.169Z,25.30
2018-09-06T12:15:45.319Z,25.10
2018-09-06T12:18:14.626Z,25.00
2018-09-06T12:20:44.748Z,25.10
2018-09-06T12:23:16.894Z,25.00
2018-09-06T12:25:47.517Z,25.10
2018-09-06T12:28:16.526Z,24.90
2018-09-06T12:30:45.911Z,24.90
2018-09-06T12:33:15.016Z,25.00
2018-09-06T12:35:44.367Z,24.90
2018-09-06T12:38:13.765Z,25.00
2018-09-06T12:40:44.007Z,24.90
2018-09-06T12:43:13.214Z,24.90
2018-09-06T12:45:42.542Z,24.90
2018-09-06T12:48:12.702Z,24.90
2018-09-06T12:50:42.041Z,24.90
2018-09-06T12:53:12.129Z,24.90
2018-09-06T12:55:41.388Z,24.90
2018-09-06T12:58:11.550Z,25.00
2018-09-06T13:00:41.863Z,25.00
2018-09-06T13:03:11.195Z,25.00
2018-09-06T13:05:41.733Z,25.00
2018-09-06T13:08:13.049Z,25.10
2018-09-06T13:10:42.064Z,25.10
2018-09-06T13:13:11.442Z,25.20
2018-09-06T13:15:41.552Z,25.10
2018-09-06T13:18:10.867Z,25.00
2018-09-06T13:20:41.594Z,25.10
2018-09-06T13:23:11.214Z,25.00
2018-09-06T13:25:40.704Z,25.00
2018-09-06T13:28:10.494Z,25.00
2018-09-06T13:30:40.917Z,25.10
2018-09-06T13:33:11.976Z,25.20
2018-09-06T13:35:41.192Z,25.20
2018-09-06T13:38:10.421Z,25.20
2018-09-06T13:40:40.574Z,25.20
2018-09-06T13:43:09.660Z,25.10
2018-09-06T13:45:38.813Z,25.00
2018-09-06T13:48:08.236Z,25.00
2018-09-06T13:50:39.634Z,25.00
2018-09-06T13:53:08.832Z,25.00
2018-09-06T13:55:37.949Z,25.10
2018-09-06T13:58:08.085Z,25.10
2018-09-06T14:00:37.932Z,25.10
2018-09-06T14:03:07.334Z,25.10
2018-09-06T14:05:38.674Z,25.10
2018-09-06T14:08:07.813Z,25.10
2018-09-06T14:10:39.256Z,25.10
2018-09-06T14:13:10.960Z,25.00
2018-09-06T14:15:41.151Z,25.00
2018-09-06T14:18:10.435Z,24.90
2018-09-06T14:20:39.652Z,24.80
2018-09-06T14:23:08.858Z,24.80
2018-09-06T14:25:37.919Z,24.80
2018-09-06T14:28:10.963Z,24.90
2018-09-06T14:30:41.631Z,24.90
2018-09-06T14:33:10.871Z,25.00
2018-09-06T14:35:41.076Z,25.00
2018-09-06T14:38:10.141Z,25.00
2018-09-06T14:40:40.507Z,25.00
2018-09-06T14:43:09.609Z,25.00
2018-09-06T14:45:41.037Z,25.10
2018-09-06T14:48:10.135Z,25.00
2018-09-06T14:50:45.972Z,24.90
2018-09-06T14:53:15.071Z,24.90
2018-09-06T14:55:44.278Z,24.90
2018-09-06T14:58:14.544Z,24.80
2018-09-06T15:00:43.861Z,24.70
2018-09-06T15:03:13.104Z,24.70
2018-09-06T15:05:44.666Z,24.70
2018-09-06T15:08:16.186Z,24.80
2018-09-06T15:10:46.349Z,24.80
2018-09-06T15:13:15.971Z,24.80
2018-09-06T15:15:45.144Z,25.00
2018-09-06T15:18:25.834Z,25.00
2018-09-06T15:20:55.718Z,25.00
2018-09-06T15:23:32.600Z,25.00
2018-09-06T15:26:04.878Z,24.90
2018-09-06T15:28:35.330Z,24.90
2018-09-06T15:31:04.958Z,24.70
2018-09-06T15:33:34.236Z,24.80
2018-09-06T15:36:03.797Z,24.90
2018-09-06T15:38:33.416Z,24.90
2018-09-06T15:41:02.685Z,24.90
2018-09-06T15:43:32.096Z,24.80
2018-09-06T15:46:01.690Z,24.80
2018-09-06T15:48:37.570Z,24.70
2018-09-06T15:51:20.009Z,24.70
2018-09-06T15:53:53.253Z,24.70
2018-09-06T15:56:22.788Z,24.70
2018-09-06T15:58:53.764Z,24.70
2018-09-06T16:01:23.012Z,24.70
2018-09-06T16:03:52.535Z,24.70
2018-09-06T16:06:21.890Z,24.70
2018-09-06T16:08:51.196Z,24.70
2018-09-06T16:11:20.971Z,24.70
2018-09-06T16:13:52.517Z,24.70
2018-09-06T16:16:24.656Z,24.70
2018-09-06T16:18:54.217Z,24.60
2018-09-06T16:21:27.454Z,24.50
2018-09-06T16:24:00.637Z,24.40
2018-09-06T16:26:30.942Z,24.50
2018-09-06T16:29:00.067Z,24.40
2018-09-06T16:31:33.944Z,24.40
2018-09-06T16:34:03.357Z,24.40
2018-09-06T16:36:33.109Z,24.30
2018-09-06T16:39:02.789Z,24.20
2018-09-06T16:41:36.176Z,24.30
2018-09-06T16:44:05.724Z,24.20
2018-09-06T16:46:36.372Z,24.20
2018-09-06T16:49:06.970Z,24.20
2018-09-06T16:51:40.616Z,24.20
2018-09-06T16:54:10.627Z,24.20
2018-09-06T16:56:45.003Z,24.10
2018-09-06T16:59:14.089Z,24.10
2018-09-06T17:01:44.449Z,24.00
2018-09-06T17:04:14.746Z,24.00
2018-09-06T17:06:48.644Z,23.90
2018-09-06T17:09:18.836Z,23.90
2018-09-06T17:11:49.392Z,23.90
2018-09-06T17:14:19.778Z,23.90
2018-09-06T17:16:49.006Z,23.80
2018-09-06T17:19:18.242Z,23.70
2018-09-06T17:21:48.884Z,23.70
2018-09-06T17:24:18.224Z,23.60
2018-09-06T17:26:47.698Z,23.60
2018-09-06T17:29:16.823Z,23.50
2018-09-06T17:31:46.296Z,23.50
2018-09-06T17:34:15.409Z,23.60
2018-09-06T17:36:44.534Z,23.60
2018-09-06T17:39:14.053Z,23.50
2018-09-06T17:41:43.287Z,23.50
2018-09-06T17:44:12.500Z,23.40
2018-09-06T17:46:42.874Z,23.30
2018-09-06T17:49:13.319Z,23.30
2018-09-06T17:51:43.657Z,23.30
2018-09-06T17:54:12.977Z,23.20
2018-09-06T17:56:42.569Z,23.20
2018-09-06T17:59:12.381Z,23.20
2018-09-06T18:01:43.055Z,23.10
2018-09-06T18:04:14.289Z,23.10
2018-09-06T18:06:43.380Z,23.10
2018-09-06T18:09:13.849Z,23.00
2018-09-06T18:11:43.671Z,23.00
2018-09-06T18:14:13.071Z,22.90
2018-09-06T18:16:42.258Z,23.00
2018-09-06T18:19:11.647Z,22.90
2018-09-06T18:21:40.755Z,22.90
2018-09-06T18:24:10.037Z,22.90
2018-09-06T18:26:40.261Z,22.90
2018-09-06T18:29:09.677Z,22.90
2018-09-06T18:31:39.002Z,23.00
2018-09-06T18:34:08.326Z,23.00
2018-09-06T18:36:39.933Z,23.00
2018-09-06T18:39:10.977Z,23.00
2018-09-06T18:41:40.359Z,23.00
2018-09-06T18:44:09.564Z,23.00
2018-09-06T18:46:38.885Z,22.90
2018-09-06T18:49:08.304Z,22.90
2018-09-06T18:51:42.050Z,22.90
2018-09-06T18:54:11.240Z,22.80
2018-09-06T18:56:45.145Z,22.80
2018-09-06T18:59:14.396Z,22.80
2018-09-06T19:01:43.437Z,22.90
2018-09-06T19:04:13.301Z,22.90
2018-09-06T19:06:46.555Z,22.90
2018-09-06T19:09:17.193Z,22.90
2018-09-06T19:11:46.521Z,22.90
2018-09-06T19:14:15.728Z,22.90
2018-09-06T19:16:45.069Z,22.90
2018-09-06T19:19:15.394Z,22.80
2018-09-06T19:21:45.811Z,22.90
2018-09-06T19:24:16.326Z,22.70
2018-09-06T19:26:45.539Z,22.70
2018-09-06T19:29:16.053Z,22.70
2018-09-06T19:31:45.540Z,22.70
2018-09-06T19:34:14.705Z,22.70
2018-09-06T19:36:44.953Z,22.60
2018-09-06T19:39:14.629Z,22.40
2018-09-06T19:41:49.953Z,22.40
2018-09-06T19:44:19.795Z,22.30
2018-09-06T19:46:48.936Z,22.10
2018-09-06T19:49:19.288Z,22.10
2018-09-06T19:51:52.000Z,22.00
2018-09-06T19:54:21.419Z,21.90
2018-09-06T19:56:50.663Z,21.90
2018-09-06T19:59:28.668Z,21.80
2018-09-06T20:02:04.878Z,21.60
2018-09-06T20:04:51.607Z,21.60
2018-09-06T20:07:23.430Z,21.50
2018-09-06T20:09:52.982Z,21.40
2018-09-06T20:12:30.015Z,21.30
2018-09-06T20:15:04.806Z,21.10
2018-09-06T20:17:38.051Z,20.90
2018-09-06T20:20:08.689Z,20.70
2018-09-06T20:22:39.980Z,20.60
2018-09-06T20:25:09.203Z,20.50
2018-09-06T20:27:46.629Z,20.40
2018-09-06T20:30:20.319Z,20.30
2018-09-06T20:32:54.197Z,20.30
2018-09-06T20:35:32.949Z,20.20
2018-09-06T20:38:12.593Z,20.20
2018-09-06T20:40:51.498Z,20.10
2018-09-06T20:43:23.282Z,20.10
2018-09-06T20:45:56.678Z,20.10
2018-09-06T20:48:31.065Z,20.00
2018-09-06T20:51:02.757Z,19.90
2018-09-06T20:53:35.139Z,19.90
2018-09-06T20:56:04.914Z,19.90
2018-09-06T20:58:34.072Z,19.90
2018-09-06T21:01:04.394Z,19.90
2018-09-06T21:03:33.443Z,19.80
2018-09-06T21:06:02.778Z,19.70
2018-09-06T21:08:31.965Z,19.70
2018-09-06T21:11:01.351Z,19.60
2018-09-06T21:13:30.707Z,19.60
2018-09-06T21:15:59.758Z,19.60
2018-09-06T21:18:29.912Z,19.50
2018-09-06T21:21:01.400Z,19.50
2018-09-06T21:23:30.470Z,19.50
2018-09-06T21:25:59.948Z,19.50
2018-09-06T21:28:28.927Z,19.50
2018-09-06T21:30:58.340Z,19.50
2018-09-06T21:33:27.474Z,19.50
2018-09-06T21:35:57.731Z,19.50
2018-09-06T21:38:27.058Z,19.50
2018-09-06T21:40:56.405Z,19.50
2018-09-06T21:43:31.008Z,19.40
2018-09-06T21:46:00.388Z,19.50
2018-09-06T21:48:29.462Z,19.40
2018-09-06T21:50:58.791Z,19.40
2018-09-06T21:53:27.958Z,19.40
2018-09-06T21:55:57.426Z,19.40
2018-09-06T21:58:27.549Z,19.40
2018-09-06T22:00:56.911Z,19.40
2018-09-06T22:03:31.980Z,19.30
2018-09-06T22:06:01.343Z,19.30
2018-09-06T22:08:34.711Z,19.30
2018-09-06T22:11:04.071Z,19.30
2018-09-06T22:13:33.310Z,19.30
2018-09-06T22:16:02.502Z,19.30
2018-09-06T22:18:32.912Z,19.30
2018-09-06T22:21:03.325Z,19.30
2018-09-06T22:23:32.587Z,19.40
2018-09-06T22:26:01.774Z,19.20
2018-09-06T22:28:30.835Z,19.20
2018-09-06T22:31:01.209Z,19.20
2018-09-06T22:33:30.713Z,19.10
2018-09-06T22:36:00.931Z,19.10
2018-09-06T22:38:30.943Z,19.10
2018-09-06T22:41:01.492Z,19.00
2018-09-06T22:43:30.944Z,19.00
2018-09-06T22:46:04.102Z,19.10
2018-09-06T22:48:37.151Z,19.10
2018-09-06T22:51:06.746Z,19.10
2018-09-06T22:53:35.929Z,19.10
2018-09-06T22:56:07.551Z,19.00
2018-09-06T22:58:40.996Z,19.00
2018-09-06T23:01:11.301Z,18.90
2018-09-06T23:03:49.634Z,18.90
2018-09-06T23:06:21.306Z,18.90
2018-09-06T23:08:51.735Z,18.90
2018-09-06T23:11:21.062Z,18.80
2018-09-06T23:13:50.333Z,18.80
2018-09-06T23:16:23.609Z,18.80
2018-09-06T23:18:52.763Z,18.70
2018-09-06T23:21:24.155Z,18.60
2018-09-06T23:23:53.717Z,18.60
2018-09-06T23:26:28.643Z,18.60
2018-09-06T23:28:57.880Z,18.50
2018-09-06T23:31:27.120Z,18.50
2018-09-06T23:33:58.191Z,18.50
2018-09-06T23:36:28.232Z,18.40
2018-09-06T23:38:58.348Z,18.40
2018-09-06T23:41:27.803Z,18.40
2018-09-06T23:43:58.784Z,18.40
2018-09-06T23:46:32.382Z,18.40
2018-09-06T23:49:01.461Z,18.40
2018-09-06T23:51:38.943Z,18.40
2018-09-06T23:54:12.318Z,18.40
2018-09-06T23:56:43.935Z,18.30
2018-09-06T23:59:23.789Z,18.30
